Main page
METAR-TAF:

METAR-TAF

Airports :

Valladolid Airport

Valladolid, Spain

latitude: 41-43N, longitude: 004-51W, elevation: 849 m

Current weather observation

The report was made 25 minutes ago, at 21:30 UTC
Wind 7 kt from the South/Southwest
Temperature 4°C
Humidity 87%
Pressure 1024 hPa
Visibility 10 km or more
no clouds below 1500 m and no cumulonimbus

METAR: LEVD 102130Z AUTO 21007KT CAVOK 04/02 Q1024

Time: 22:55 (21:55 UTC)

Forecast

The report was made 4 hours and 55 minutes ago, at 17:00 UTC
Forecast valid from 10 at 18 UTC to 11 at 18 UTC
Wind 2 kt from variable directions
Visibility 10 km or more
no clouds below 1500 m and no cumulonimbus
Temporary
from 11 at 03 UTC to 11 at 09 UTC
Visibility: 3000 m
Broken clouds at a height of 1000 ft
rain, mist
Becoming
from 11 at 09 UTC to 11 at 10 UTC
Wind 10 kt from the Northwest

TAF: LEVD 101700Z 1018/1118 VRB02KT CAVOK TX08/1115Z TN01/1106Z TEMPO 1103/1109 3000 RA BR BKN010 BECMG 1109/1110 31010KT

Weather observations and forecasts of more than 4000 airports (METAR and TAF reports).

The available stations are represented by yellow and red dots on the map.

Hover mouse over dot to see the name of the station.

Then click to see weather observations and forecasts.

To change the map : click on the green buttons with a black cross to zoom in, on the green button with a dash to zoom out, or on the green arrows for adjacent maps.


METAR-TAF: